This is the latest recevied weather packets stored in our database for station/object JS1SZZ-13. If no packets are shown the sender has not sent any weather packets the latest 10 day(s).
| Time | Temp. | Humidity | Pressure | Rain* | Wind** | Luminosity | Snow |
|---|---|---|---|---|---|---|---|
| 1787779659 | 18.33° C | 94% | 1011.2 hPa | 8.38 mm | - | - | - |
| 1787778758 | 18.33° C | 94% | 1011.2 hPa | 9.65 mm | - | - | - |
| 1787777859 | 18.33° C | 93% | 1011.7 hPa | 10.67 mm | - | - | - |
| 1787776959 | 18.33° C | 92% | 1011.3 hPa | 10.41 mm | - | - | - |
| 1787776060 | 19.44° C | 92% | 1012.2 hPa | 5.59 mm | - | - | - |
| 1787775159 | 19.44° C | 92% | 1011.8 hPa | 3.56 mm | - | - | - |
| 1787774258 | 19.44° C | 91% | 1011.8 hPa | 2.03 mm | - | - | - |
| 1787773359 | 21.11° C | 91% | 1011.7 hPa | 0.51 mm | - | - | - |
| 1787772458 | 21.67° C | 91% | 1011 hPa | 0.25 mm | - | - | - |
| 1787771560 | 21.67° C | 91% | 1011.1 hPa | 0.51 mm | - | - | - |
| 1787770659 | 21.11° C | 91% | 1010.5 hPa | 0.76 mm | - | - | - |
| 1787769758 | 21.67° C | 93% | 1010.7 hPa | 0.76 mm | - | - | - |
| 1787768860 | 21.67° C | 93% | 1010.4 hPa | 0.51 mm | - | - | - |
| 1787767959 | 21.67° C | 93% | 1010.1 hPa | 0.25 mm | - | - | - |
| 1787767058 | 21.67° C | 93% | 1009.8 hPa | 0 mm | - | - | - |
| 1787766160 | 21.67° C | 93% | 1009.6 hPa | 0 mm | - | - | - |
| 1787765259 | 21.67° C | 93% | 1009.6 hPa | 0.25 mm | - | - | - |
| 1787764358 | 22.22° C | 93% | 1009.8 hPa | 0.51 mm | - | - | - |
| 1787763460 | 22.22° C | 93% | 1009.4 hPa | 1.02 mm | - | - | - |
| 1787762559 | 22.22° C | 93% | 1009.7 hPa | 1.02 mm | - | - | - |
| 1787761658 | 22.78° C | 93% | 1009.1 hPa | 1.02 mm | - | - | - |
| 1787760760 | 22.78° C | 93% | 1010.4 hPa | 0.76 mm | - | - | - |
| 1787759859 | 22.78° C | 93% | 1010.4 hPa | 0.25 mm | - | - | - |
| 1787758959 | 22.78° C | 93% | 1010.4 hPa | 0.25 mm | - | - | - |
| 1787758060 | 22.78° C | 93% | 1011.1 hPa | 0 mm | - | - | - |
* Rain latest hour (hover to see other rain measurements)
** Current wind speed in m/s (hover to see current wind gust speed)